createdAt,value
2022-12-23T00:02:00.699Z,11.20
2022-12-23T00:04:27.509Z,10.80
2022-12-23T00:06:54.619Z,11.00
2022-12-23T00:09:21.651Z,11.00
2022-12-23T00:12:10.353Z,11.20
2022-12-23T00:14:58.951Z,10.90
2022-12-23T00:17:26.136Z,10.90
2022-12-23T00:19:53.071Z,10.80
2022-12-23T00:22:19.945Z,10.90
2022-12-23T00:24:46.760Z,10.80
2022-12-23T00:27:13.630Z,10.80
2022-12-23T00:29:40.431Z,10.70
2022-12-23T00:32:07.226Z,10.70
2022-12-23T00:34:34.146Z,10.60
2022-12-23T00:37:04.018Z,10.60
2022-12-23T00:39:53.639Z,10.70
2022-12-23T00:42:40.571Z,10.70
2022-12-23T00:46:02.904Z,10.60
2022-12-23T00:49:00.561Z,10.60
2022-12-23T00:51:20.959Z,11.70
2022-12-23T00:53:47.736Z,11.70
2022-12-23T00:56:14.472Z,10.70
2022-12-23T00:58:41.292Z,10.60
2022-12-23T01:01:29.968Z,10.50
2022-12-23T01:04:15.573Z,10.50
2022-12-23T01:06:42.616Z,10.60
2022-12-23T01:09:09.484Z,10.80
2022-12-23T01:11:37.374Z,10.50
2022-12-23T01:14:04.176Z,10.50
2022-12-23T01:16:30.952Z,10.50
2022-12-23T01:18:58.822Z,10.50
2022-12-23T01:21:25.741Z,10.70
2022-12-23T01:23:52.461Z,10.40
2022-12-23T01:26:19.253Z,10.40
2022-12-23T01:28:46.895Z,10.60
2022-12-23T01:31:13.827Z,10.40
2022-12-23T01:33:40.946Z,10.40
2022-12-23T01:36:07.843Z,10.40
2022-12-23T01:38:34.861Z,9.60
2022-12-23T01:41:01.630Z,10.30
2022-12-23T01:43:47.228Z,10.30
2022-12-23T01:46:14.431Z,10.30
2022-12-23T01:48:42.427Z,10.30
2022-12-23T01:51:11.095Z,10.20
2022-12-23T01:53:39.058Z,10.50
2022-12-23T01:56:06.023Z,10.20
2022-12-23T01:58:52.107Z,10.20
2022-12-23T02:01:37.886Z,10.20
2022-12-23T02:04:05.463Z,10.10
2022-12-23T02:06:57.697Z,10.10
2022-12-23T02:09:27.778Z,10.10
2022-12-23T02:12:06.969Z,10.10
2022-12-23T02:15:05.393Z,10.10
2022-12-23T02:17:35.534Z,10.10
2022-12-23T02:20:21.270Z,10.50
2022-12-23T02:22:48.180Z,10.10
2022-12-23T02:25:34.676Z,10.00
2022-12-23T02:28:14.114Z,10.00
2022-12-23T02:30:43.043Z,10.10
2022-12-23T02:33:12.943Z,10.00
2022-12-23T02:35:58.639Z,10.00
2022-12-23T02:38:34.459Z,10.00
2022-12-23T02:41:09.795Z,10.00
2022-12-23T02:43:39.624Z,9.90
2022-12-23T02:46:21.683Z,10.30
2022-12-23T02:48:48.441Z,9.90
2022-12-23T02:51:15.875Z,9.90
2022-12-23T02:53:46.017Z,10.10
2022-12-23T02:56:12.786Z,9.90
2022-12-23T02:58:45.931Z,9.80
2022-12-23T03:01:13.405Z,9.80
2022-12-23T03:03:40.312Z,9.80
2022-12-23T03:06:10.192Z,10.40
2022-12-23T03:08:39.714Z,9.80
2022-12-23T03:11:14.757Z,9.80
2022-12-23T03:14:06.053Z,9.90
2022-12-23T03:16:42.197Z,9.80
2022-12-23T03:19:21.066Z,10.20
2022-12-23T03:21:47.845Z,9.80
2022-12-23T03:24:21.081Z,9.50
2022-12-23T03:26:55.940Z,9.80
2022-12-23T03:29:42.975Z,10.10
2022-12-23T03:32:10.382Z,10.00
2022-12-23T03:34:37.932Z,9.80
2022-12-23T03:37:05.707Z,9.80
2022-12-23T03:39:34.773Z,9.80
2022-12-23T03:42:07.148Z,9.80
2022-12-23T03:44:37.666Z,10.10
2022-12-23T03:47:09.451Z,9.70
2022-12-23T03:49:38.559Z,9.70
2022-12-23T03:52:13.495Z,9.90
2022-12-23T03:54:46.998Z,9.70
2022-12-23T03:57:13.734Z,9.70
2022-12-23T03:59:44.183Z,9.70
2022-12-23T04:02:15.888Z,9.70
2022-12-23T04:05:01.437Z,10.10
2022-12-23T04:07:30.567Z,9.70
2022-12-23T04:09:57.366Z,9.20
2022-12-23T04:12:24.441Z,10.20
2022-12-23T04:14:51.216Z,9.90
2022-12-23T04:17:18.324Z,10.60
2022-12-23T04:19:48.116Z,9.70
2022-12-23T04:22:15.370Z,10.20
2022-12-23T04:24:42.326Z,9.70
2022-12-23T04:27:10.039Z,9.40
2022-12-23T04:29:36.900Z,8.80
2022-12-23T04:32:03.748Z,9.80
2022-12-23T04:34:30.489Z,9.70
2022-12-23T04:36:57.201Z,9.70
2022-12-23T04:39:23.937Z,9.70
2022-12-23T04:41:50.687Z,9.70
2022-12-23T04:44:17.446Z,9.70
2022-12-23T04:46:45.176Z,9.70
2022-12-23T04:49:11.911Z,9.70
2022-12-23T04:51:38.583Z,10.10
2022-12-23T04:54:05.368Z,9.60
2022-12-23T04:56:32.048Z,9.60
2022-12-23T04:58:58.915Z,10.40
2022-12-23T05:01:25.716Z,10.10
2022-12-23T05:03:52.488Z,9.90
2022-12-23T05:06:19.304Z,9.60
2022-12-23T05:08:46.006Z,9.30
2022-12-23T05:11:12.777Z,10.20
2022-12-23T05:13:39.462Z,9.90
2022-12-23T05:16:06.578Z,9.60
2022-12-23T05:18:33.338Z,9.60
2022-12-23T05:21:00.048Z,9.60
2022-12-23T05:23:26.762Z,9.60
2022-12-23T05:25:53.839Z,9.60
2022-12-23T05:28:21.317Z,9.60
2022-12-23T05:30:48.089Z,9.60
2022-12-23T05:33:15.030Z,9.70
2022-12-23T05:35:41.756Z,9.60
2022-12-23T05:38:08.577Z,9.30
2022-12-23T05:40:35.612Z,9.60
2022-12-23T05:43:02.625Z,9.60
2022-12-23T05:45:29.379Z,10.20
2022-12-23T05:47:56.162Z,9.60
2022-12-23T05:50:22.967Z,9.80
2022-12-23T05:52:49.755Z,10.10
2022-12-23T05:55:16.590Z,9.60
2022-12-23T05:57:43.548Z,9.80
2022-12-23T06:00:10.781Z,9.60
2022-12-23T06:02:37.564Z,9.30
2022-12-23T06:05:04.549Z,9.50
2022-12-23T06:07:31.320Z,9.50
2022-12-23T06:09:58.115Z,9.50
2022-12-23T06:12:24.805Z,10.30
2022-12-23T06:14:51.667Z,9.40
2022-12-23T06:17:18.406Z,10.00
2022-12-23T06:19:45.236Z,9.90
2022-12-23T06:22:12.180Z,10.20
2022-12-23T06:24:38.884Z,9.30
2022-12-23T06:27:05.589Z,9.60
2022-12-23T06:29:32.279Z,9.40
2022-12-23T06:31:59.044Z,9.30
2022-12-23T06:34:25.887Z,9.30
2022-12-23T06:36:52.562Z,9.30
2022-12-23T06:39:19.294Z,9.50
2022-12-23T06:41:46.076Z,9.10
2022-12-23T06:44:13.048Z,9.10
2022-12-23T06:46:39.835Z,9.10
2022-12-23T06:49:12.876Z,9.20
2022-12-23T06:51:40.433Z,9.10
2022-12-23T06:54:07.223Z,9.00
2022-12-23T06:56:34.350Z,8.90
2022-12-23T06:59:01.088Z,8.90
2022-12-23T07:01:28.042Z,9.20
2022-12-23T07:03:54.857Z,8.90
2022-12-23T07:06:21.589Z,9.20
2022-12-23T07:08:48.478Z,8.90
2022-12-23T07:11:15.250Z,9.20
2022-12-23T07:13:41.960Z,8.20
2022-12-23T07:16:09.059Z,9.80
2022-12-23T07:18:36.176Z,8.80
2022-12-23T07:21:03.165Z,8.80
2022-12-23T07:23:29.978Z,8.80
2022-12-23T07:25:56.719Z,10.40
2022-12-23T07:28:23.787Z,10.10
2022-12-23T07:30:50.587Z,8.70
2022-12-23T07:33:17.535Z,9.40
2022-12-23T07:35:44.324Z,9.00
2022-12-23T07:38:11.095Z,8.80
2022-12-23T07:40:37.836Z,8.80
2022-12-23T07:43:05.674Z,8.70
2022-12-23T07:45:32.556Z,7.80
2022-12-23T07:47:59.966Z,8.90
2022-12-23T07:50:27.335Z,9.10
2022-12-23T07:52:56.580Z,9.50
2022-12-23T07:55:23.401Z,9.60
2022-12-23T07:57:50.811Z,8.80
2022-12-23T08:00:18.194Z,8.90
2022-12-23T08:02:45.273Z,8.80
2022-12-23T08:05:12.433Z,9.50
2022-12-23T08:07:39.340Z,9.30
2022-12-23T08:10:06.521Z,9.10
2022-12-23T08:12:33.558Z,8.80
2022-12-23T08:15:00.531Z,8.10
2022-12-23T08:17:27.922Z,7.50
2022-12-23T08:19:54.785Z,8.20
2022-12-23T08:22:21.623Z,8.70
2022-12-23T08:24:48.418Z,8.80
2022-12-23T08:27:16.735Z,8.80
2022-12-23T08:29:43.735Z,8.10
2022-12-23T08:32:10.642Z,7.80
2022-12-23T08:34:37.400Z,8.80
2022-12-23T08:37:06.484Z,8.80
2022-12-23T08:39:33.765Z,10.60
2022-12-23T08:42:00.837Z,8.90
2022-12-23T08:44:28.281Z,9.00
2022-12-23T08:46:55.406Z,8.80
2022-12-23T08:49:22.367Z,8.80
2022-12-23T08:51:49.077Z,9.10
2022-12-23T08:54:16.059Z,9.10
2022-12-23T08:56:42.904Z,9.50
2022-12-23T08:59:19.019Z,8.70
2022-12-23T09:01:47.129Z,8.70
2022-12-23T09:04:14.091Z,9.20
2022-12-23T09:06:41.496Z,10.00
2022-12-23T09:09:09.003Z,8.00
2022-12-23T09:11:35.798Z,9.50
2022-12-23T09:14:02.761Z,9.10
2022-12-23T09:16:29.751Z,8.90
2022-12-23T09:18:56.652Z,9.30
2022-12-23T09:21:24.474Z,8.70
2022-12-23T09:23:51.511Z,8.80
2022-12-23T09:26:19.346Z,9.90
2022-12-23T09:28:46.342Z,9.80
2022-12-23T09:31:13.525Z,9.10
2022-12-23T09:33:40.728Z,9.40
2022-12-23T09:36:07.894Z,10.30
2022-12-23T09:38:34.990Z,9.40
2022-12-23T09:41:20.566Z,10.20
2022-12-23T09:43:57.431Z,9.20
2022-12-23T09:46:24.691Z,9.20
2022-12-23T09:49:18.566Z,9.40
2022-12-23T09:51:45.845Z,10.40
2022-12-23T09:54:17.445Z,9.70
2022-12-23T09:57:06.707Z,9.30
2022-12-23T09:59:36.693Z,9.30
2022-12-23T10:02:06.648Z,9.40
2022-12-23T10:04:40.895Z,9.30
2022-12-23T10:07:12.644Z,9.30
2022-12-23T10:09:40.082Z,10.50
2022-12-23T10:12:14.705Z,9.90
2022-12-23T10:14:44.477Z,8.40
2022-12-23T10:17:13.025Z,10.40
2022-12-23T10:19:46.998Z,9.70
2022-12-23T10:22:17.724Z,9.40
2022-12-23T10:24:45.441Z,9.40
2022-12-23T10:27:15.521Z,8.90
2022-12-23T10:29:42.585Z,9.90
2022-12-23T10:32:30.637Z,10.70
2022-12-23T10:35:21.016Z,10.10
2022-12-23T10:38:00.246Z,9.70
2022-12-23T10:40:33.314Z,10.90
2022-12-23T10:43:04.912Z,10.80
2022-12-23T10:45:37.835Z,9.20
2022-12-23T10:48:13.576Z,9.70
2022-12-23T10:50:46.432Z,9.90
2022-12-23T10:53:15.294Z,9.90
2022-12-23T10:55:42.287Z,9.90
2022-12-23T10:58:13.509Z,10.90
2022-12-23T11:00:41.357Z,10.80
2022-12-23T11:03:19.156Z,11.00
2022-12-23T11:05:46.532Z,10.00
2022-12-23T11:08:13.426Z,10.30
2022-12-23T11:10:40.421Z,9.80
2022-12-23T11:13:07.307Z,10.10
2022-12-23T11:15:38.743Z,11.10
2022-12-23T11:18:11.731Z,11.00
2022-12-23T11:20:39.178Z,10.20
2022-12-23T11:23:07.439Z,10.50
2022-12-23T11:25:41.416Z,10.30
2022-12-23T11:28:13.208Z,11.20
2022-12-23T11:30:56.469Z,10.30
2022-12-23T11:33:27.130Z,11.20
2022-12-23T11:36:05.010Z,10.30
2022-12-23T11:38:32.232Z,10.40
2022-12-23T11:40:59.002Z,11.40
2022-12-23T11:43:27.035Z,10.50
2022-12-23T11:46:12.882Z,11.00
2022-12-23T11:48:39.964Z,11.00
2022-12-23T11:51:06.841Z,10.80
2022-12-23T11:53:35.737Z,10.90
2022-12-23T11:56:02.573Z,9.60
2022-12-23T11:58:30.046Z,11.50
2022-12-23T12:00:58.091Z,11.80
2022-12-23T12:03:27.173Z,11.20
2022-12-23T12:06:01.403Z,12.40
2022-12-23T12:08:31.089Z,11.20
2022-12-23T12:11:16.808Z,12.10
2022-12-23T12:13:44.592Z,11.30
2022-12-23T12:16:21.416Z,10.70
2022-12-23T12:18:53.640Z,11.70
2022-12-23T12:21:23.766Z,11.30
2022-12-23T12:24:08.363Z,12.40
2022-12-23T12:26:38.331Z,12.40
2022-12-23T12:29:16.457Z,12.80
2022-12-23T12:31:44.530Z,12.60
2022-12-23T12:34:21.087Z,12.70
2022-12-23T12:36:53.401Z,12.80
2022-12-23T12:39:22.724Z,14.40
2022-12-23T12:42:05.528Z,13.10
2022-12-23T12:44:52.642Z,13.10
2022-12-23T12:47:52.527Z,13.20
2022-12-23T12:50:19.004Z,13.30
2022-12-23T12:52:46.165Z,13.70
2022-12-23T12:55:27.194Z,13.30
2022-12-23T12:57:53.962Z,13.50
2022-12-23T13:00:24.220Z,13.50
2022-12-23T13:02:54.428Z,13.50
2022-12-23T13:05:33.541Z,13.60
2022-12-23T13:08:00.347Z,13.50
2022-12-23T13:10:36.766Z,13.50
2022-12-23T13:13:08.917Z,13.40
2022-12-23T13:15:39.451Z,13.40
2022-12-23T13:18:09.487Z,13.40
2022-12-23T13:20:37.897Z,13.30
2022-12-23T13:26:08.001Z,13.30
2022-12-23T13:28:56.601Z,13.10
2022-12-23T13:31:35.338Z,13.40
2022-12-23T13:34:23.707Z,13.50
2022-12-23T13:36:56.046Z,13.50
2022-12-23T13:39:38.422Z,13.50
2022-12-23T13:42:06.331Z,13.60
2022-12-23T13:44:33.507Z,13.60
2022-12-23T13:47:22.485Z,13.60
2022-12-23T13:49:55.450Z,13.60
2022-12-23T13:52:28.815Z,13.50
2022-12-23T13:55:09.836Z,13.50
2022-12-23T13:57:41.722Z,13.50
2022-12-23T14:00:18.555Z,14.10
2022-12-23T14:02:58.148Z,13.40
2022-12-23T14:05:28.231Z,13.40
2022-12-23T14:07:58.343Z,13.40
2022-12-23T14:10:25.528Z,13.40
2022-12-23T14:12:52.751Z,13.40
2022-12-23T14:15:24.503Z,12.50
2022-12-23T14:17:51.341Z,13.40
2022-12-23T14:20:21.891Z,13.50
2022-12-23T14:23:05.413Z,13.40
2022-12-23T14:25:53.285Z,13.50
2022-12-23T14:28:43.551Z,13.50
2022-12-23T14:31:29.446Z,13.40
2022-12-23T14:34:02.278Z,13.40
2022-12-23T14:36:30.389Z,13.20
2022-12-23T14:39:13.112Z,13.00
2022-12-23T14:41:48.266Z,12.80
2022-12-23T14:44:19.387Z,12.60
2022-12-23T14:46:46.227Z,12.50
2022-12-23T14:49:40.727Z,12.30
2022-12-23T14:52:30.057Z,12.30
2022-12-23T14:55:28.474Z,12.20
2022-12-23T14:57:46.191Z,12.10
2022-12-23T15:00:13.182Z,12.00
2022-12-23T15:02:41.416Z,12.00
2022-12-23T15:05:09.219Z,12.00
2022-12-23T15:07:40.689Z,12.00
2022-12-23T15:10:23.310Z,11.90
2022-12-23T15:12:52.188Z,11.90
2022-12-23T15:15:20.159Z,11.90
2022-12-23T15:17:46.954Z,11.90
2022-12-23T15:20:15.595Z,11.90
2022-12-23T15:22:43.123Z,11.80
2022-12-23T15:25:28.885Z,11.80
2022-12-23T15:28:01.513Z,11.80
2022-12-23T15:30:29.738Z,11.30
2022-12-23T15:33:00.573Z,11.70
2022-12-23T15:35:29.954Z,11.70
2022-12-23T15:37:56.887Z,11.60
2022-12-23T15:40:27.633Z,11.60
2022-12-23T15:42:54.802Z,11.50
2022-12-23T15:45:28.111Z,11.50
2022-12-23T15:47:55.255Z,11.50
2022-12-23T15:50:22.028Z,11.70
2022-12-23T15:52:49.031Z,11.40
2022-12-23T15:55:18.857Z,11.40
2022-12-23T15:57:50.531Z,11.40
2022-12-23T16:00:27.502Z,11.40
2022-12-23T16:03:04.711Z,11.30
2022-12-23T16:05:35.959Z,11.30
2022-12-23T16:08:21.756Z,11.30
2022-12-23T16:11:13.566Z,11.30
2022-12-23T16:13:46.699Z,11.20
2022-12-23T16:16:19.769Z,11.20
2022-12-23T16:18:47.942Z,11.50
2022-12-23T16:21:15.844Z,11.20
2022-12-23T16:23:46.156Z,11.10
2022-12-23T16:26:18.717Z,11.00
2022-12-23T16:28:47.071Z,11.00
2022-12-23T16:31:16.545Z,10.90
2022-12-23T16:33:51.291Z,10.90
2022-12-23T16:36:23.185Z,10.20
2022-12-23T16:38:51.254Z,10.90
2022-12-23T16:44:00.569Z,11.00
2022-12-23T16:46:29.991Z,11.00
2022-12-23T16:51:42.033Z,11.20
2022-12-23T16:54:10.362Z,11.10
2022-12-23T16:56:38.059Z,11.10
2022-12-23T16:59:06.541Z,11.10
2022-12-23T17:01:34.208Z,11.20
2022-12-23T17:04:09.953Z,11.20
2022-12-23T17:06:36.948Z,11.20
2022-12-23T17:09:04.315Z,11.20
2022-12-23T17:11:34.988Z,11.60
2022-12-23T17:14:06.760Z,11.10
2022-12-23T17:16:39.163Z,11.10
2022-12-23T17:19:06.972Z,11.10
2022-12-23T17:21:39.926Z,11.10
2022-12-23T17:24:17.376Z,11.10
2022-12-23T17:26:44.606Z,11.10
2022-12-23T17:29:13.231Z,11.20
2022-12-23T17:31:40.749Z,11.60
2022-12-23T17:34:12.193Z,11.50
2022-12-23T17:36:47.617Z,11.30
2022-12-23T17:39:17.131Z,11.20
2022-12-23T17:41:47.080Z,11.20
2022-12-23T17:44:14.857Z,11.10
2022-12-23T17:46:44.008Z,11.10
2022-12-23T17:49:10.875Z,11.00
2022-12-23T17:51:38.443Z,11.00
2022-12-23T17:54:06.633Z,11.00
2022-12-23T17:56:33.703Z,10.90
2022-12-23T17:59:00.633Z,11.20
2022-12-23T18:01:31.088Z,10.90
2022-12-23T18:03:58.476Z,10.90
2022-12-23T18:06:32.176Z,10.80
2022-12-23T18:08:59.952Z,10.80
2022-12-23T18:11:28.558Z,10.70
2022-12-23T18:13:55.502Z,10.70
2022-12-23T18:16:27.623Z,10.70
2022-12-23T18:18:57.709Z,10.70
2022-12-23T18:21:25.608Z,10.70
2022-12-23T18:23:53.424Z,10.70
2022-12-23T18:26:21.189Z,10.80
2022-12-23T18:28:48.000Z,10.80
2022-12-23T18:31:15.831Z,10.80
2022-12-23T18:33:42.808Z,10.80
2022-12-23T18:36:19.611Z,10.70
2022-12-23T18:38:46.799Z,10.70
2022-12-23T18:41:16.564Z,10.70
2022-12-23T18:43:43.553Z,10.60
2022-12-23T18:46:10.518Z,10.60
2022-12-23T18:48:38.210Z,10.60
2022-12-23T18:51:06.033Z,10.60
2022-12-23T18:53:32.909Z,9.70
2022-12-23T18:55:59.766Z,10.50
2022-12-23T18:58:27.086Z,10.50
2022-12-23T19:00:54.465Z,10.40
2022-12-23T19:03:23.398Z,10.40
2022-12-23T19:05:50.494Z,10.40
2022-12-23T19:08:23.630Z,10.60
2022-12-23T19:10:53.231Z,10.50
2022-12-23T19:13:20.357Z,10.50
2022-12-23T19:15:50.341Z,10.50
2022-12-23T19:18:17.959Z,10.40
2022-12-23T19:20:46.555Z,10.50
2022-12-23T19:23:14.509Z,10.40
2022-12-23T19:25:42.055Z,10.40
2022-12-23T19:28:09.775Z,10.40
2022-12-23T19:30:36.904Z,10.00
2022-12-23T19:33:03.759Z,10.40
2022-12-23T19:35:33.217Z,10.30
2022-12-23T19:38:00.164Z,10.30
2022-12-23T19:40:27.706Z,10.30
2022-12-23T19:43:00.750Z,10.50
2022-12-23T19:45:28.270Z,10.20
2022-12-23T19:47:55.112Z,10.20
2022-12-23T19:50:22.469Z,10.20
2022-12-23T19:52:52.341Z,10.20
2022-12-23T19:55:19.750Z,10.20
2022-12-23T19:57:46.684Z,10.20
2022-12-23T20:00:16.586Z,10.10
2022-12-23T20:02:44.765Z,10.10
2022-12-23T20:05:11.681Z,10.10
2022-12-23T20:07:39.638Z,10.10
2022-12-23T20:10:07.517Z,9.90
2022-12-23T20:12:36.201Z,10.00
2022-12-23T20:15:03.224Z,10.00
2022-12-23T20:17:30.052Z,10.00
2022-12-23T20:19:57.477Z,10.00
2022-12-23T20:22:33.624Z,10.00
2022-12-23T20:25:00.921Z,10.00
2022-12-23T20:27:28.439Z,10.00
2022-12-23T20:29:55.398Z,10.00
2022-12-23T20:32:22.297Z,10.10
2022-12-23T20:34:51.356Z,10.00
2022-12-23T20:37:18.230Z,10.00
2022-12-23T20:39:48.044Z,10.00
2022-12-23T20:42:14.866Z,10.00
2022-12-23T20:44:43.006Z,10.10
2022-12-23T20:47:09.924Z,10.00
2022-12-23T20:49:36.838Z,10.00
2022-12-23T20:52:04.907Z,10.10
2022-12-23T20:54:33.980Z,10.00
2022-12-23T20:57:01.461Z,9.60
2022-12-23T20:59:28.471Z,10.00
2022-12-23T21:01:55.744Z,10.00
2022-12-23T21:04:22.778Z,10.00
2022-12-23T21:06:50.594Z,10.00
2022-12-23T21:09:17.657Z,10.00
2022-12-23T21:11:45.125Z,9.90
2022-12-23T21:14:13.641Z,9.90
2022-12-23T21:16:40.973Z,9.90
2022-12-23T21:19:08.619Z,9.90
2022-12-23T21:21:35.515Z,10.30
2022-12-23T21:24:04.807Z,9.80
2022-12-23T21:26:32.339Z,9.90
2022-12-23T21:29:03.012Z,9.90
2022-12-23T21:31:30.895Z,9.80
2022-12-23T21:33:58.101Z,9.80
2022-12-23T21:36:25.734Z,9.80
2022-12-23T21:38:52.720Z,9.80
2022-12-23T21:41:20.513Z,9.70
2022-12-23T21:43:48.438Z,9.80
2022-12-23T21:46:16.127Z,9.70
2022-12-23T21:48:43.246Z,9.70
2022-12-23T21:51:16.605Z,9.70
2022-12-23T21:53:46.026Z,9.70
2022-12-23T21:56:14.126Z,9.70
2022-12-23T21:58:41.517Z,9.60
2022-12-23T22:01:09.691Z,9.70
2022-12-23T22:03:36.647Z,9.70
2022-12-23T22:06:10.622Z,9.60
2022-12-23T22:08:37.979Z,9.70
2022-12-23T22:11:11.732Z,9.60
2022-12-23T22:13:40.907Z,9.70
2022-12-23T22:16:14.152Z,9.60
2022-12-23T22:18:44.185Z,9.60
2022-12-23T22:21:14.852Z,9.60
2022-12-23T22:23:41.917Z,9.60
2022-12-23T22:26:10.145Z,9.60
2022-12-23T22:28:39.706Z,9.00
2022-12-23T22:31:08.965Z,9.60
2022-12-23T22:33:38.801Z,9.60
2022-12-23T22:36:06.312Z,9.70
2022-12-23T22:38:36.235Z,9.70
2022-12-23T22:41:02.982Z,9.70
2022-12-23T22:43:30.013Z,9.60
2022-12-23T22:45:57.399Z,9.60
2022-12-23T22:48:24.880Z,9.60
2022-12-23T22:50:53.359Z,9.60
2022-12-23T22:53:23.498Z,10.20
2022-12-23T22:56:03.558Z,9.70
2022-12-23T22:58:30.672Z,9.90
2022-12-23T23:00:57.922Z,9.70
2022-12-23T23:03:26.309Z,9.70
2022-12-23T23:06:03.392Z,9.70
2022-12-23T23:08:30.967Z,9.70
2022-12-23T23:10:58.129Z,9.70
2022-12-23T23:13:25.653Z,9.70
2022-12-23T23:15:58.135Z,9.70
2022-12-23T23:18:25.014Z,9.70
2022-12-23T23:20:51.882Z,9.70
2022-12-23T23:23:20.983Z,9.80
2022-12-23T23:25:47.869Z,9.80
2022-12-23T23:28:14.719Z,9.80
2022-12-23T23:30:41.525Z,9.80
2022-12-23T23:33:08.660Z,9.80
2022-12-23T23:35:35.643Z,9.80
2022-12-23T23:38:04.451Z,9.80
2022-12-23T23:40:35.662Z,9.90
2022-12-23T23:43:02.912Z,9.90
2022-12-23T23:45:30.399Z,9.90
2022-12-23T23:47:57.239Z,9.90
2022-12-23T23:50:24.051Z,9.90
2022-12-23T23:52:51.048Z,10.00
2022-12-23T23:55:17.910Z,10.00
2022-12-23T23:57:44.812Z,10.00
